sensor_id;sensor_type;location;lat;lon;timestamp;pressure;altitude;pressure_sealevel;temperature;humidity
63883;BME280;50047;50.596;30.466;2023-07-31T00:00:05;98632.23;;;19.78;77.19
63883;BME280;50047;50.596;30.466;2023-07-31T00:02:32;98634.11;;;19.62;77.57
63883;BME280;50047;50.596;30.466;2023-07-31T00:04:59;98638.80;;;19.48;78.26
63883;BME280;50047;50.596;30.466;2023-07-31T00:07:27;98638.66;;;19.55;80.64
63883;BME280;50047;50.596;30.466;2023-07-31T00:09:54;98639.00;;;19.83;80.61
63883;BME280;50047;50.596;30.466;2023-07-31T00:12:20;98638.11;;;19.97;79.58
63883;BME280;50047;50.596;30.466;2023-07-31T00:14:47;98635.70;;;19.88;78.76
63883;BME280;50047;50.596;30.466;2023-07-31T00:17:16;98632.50;;;19.71;78.44
63883;BME280;50047;50.596;30.466;2023-07-31T00:19:43;98628.23;;;19.48;78.81
63883;BME280;50047;50.596;30.466;2023-07-31T00:22:12;98627.92;;;19.24;79.74
63883;BME280;50047;50.596;30.466;2023-07-31T00:24:39;98628.56;;;19.33;82.18
63883;BME280;50047;50.596;30.466;2023-07-31T00:27:06;98624.95;;;19.60;82.71
63883;BME280;50047;50.596;30.466;2023-07-31T00:29:33;98623.11;;;19.69;82.16
63883;BME280;50047;50.596;30.466;2023-07-31T00:32:00;98622.62;;;19.60;81.83
63883;BME280;50047;50.596;30.466;2023-07-31T00:34:27;98617.19;;;19.43;82.24
63883;BME280;50047;50.596;30.466;2023-07-31T00:36:54;98618.83;;;19.28;82.32
63883;BME280;50047;50.596;30.466;2023-07-31T00:39:20;98625.92;;;19.38;84.89
63883;BME280;50047;50.596;30.466;2023-07-31T00:41:47;98623.52;;;19.61;84.96
63883;BME280;50047;50.596;30.466;2023-07-31T00:44:14;98629.05;;;19.72;83.62
63883;BME280;50047;50.596;30.466;2023-07-31T00:46:41;98625.73;;;19.69;82.27
63883;BME280;50047;50.596;30.466;2023-07-31T00:49:08;98624.66;;;19.57;81.55
63883;BME280;50047;50.596;30.466;2023-07-31T00:51:36;98618.94;;;19.37;81.74
63883;BME280;50047;50.596;30.466;2023-07-31T00:54:03;98623.59;;;19.42;84.09
63883;BME280;50047;50.596;30.466;2023-07-31T00:56:30;98624.42;;;19.66;83.86
63883;BME280;50047;50.596;30.466;2023-07-31T00:58:57;98621.52;;;19.73;82.68
63883;BME280;50047;50.596;30.466;2023-07-31T01:01:24;98624.86;;;19.67;81.72
63883;BME280;50047;50.596;30.466;2023-07-31T01:03:52;98629.55;;;19.51;81.72
63883;BME280;50047;50.596;30.466;2023-07-31T01:11:52;98639.56;;;19.84;83.04
63883;BME280;50047;50.596;30.466;2023-07-31T01:14:19;98643.02;;;19.96;81.66
63883;BME280;50047;50.596;30.466;2023-07-31T01:16:46;98642.64;;;19.94;80.87
63883;BME280;50047;50.596;30.466;2023-07-31T01:19:15;98646.13;;;19.84;80.43
63883;BME280;50047;50.596;30.466;2023-07-31T01:24:34;98646.80;;;19.87;82.27
63883;BME280;50047;50.596;30.466;2023-07-31T01:27:10;98650.61;;;20.19;82.00
63883;BME280;50047;50.596;30.466;2023-07-31T01:29:49;98645.80;;;20.22;80.95
63883;BME280;50047;50.596;30.466;2023-07-31T01:32:19;98646.29;;;20.13;80.17
63883;BME280;50047;50.596;30.466;2023-07-31T01:34:46;98647.39;;;19.98;79.67
63883;BME280;50047;50.596;30.466;2023-07-31T01:37:14;98648.34;;;19.83;79.79
63883;BME280;50047;50.596;30.466;2023-07-31T01:39:40;98645.27;;;19.89;81.73
63883;BME280;50047;50.596;30.466;2023-07-31T01:42:07;98641.65;;;20.12;81.50
63883;BME280;50047;50.596;30.466;2023-07-31T01:44:34;98639.34;;;20.22;80.42
63883;BME280;50047;50.596;30.466;2023-07-31T01:47:04;98641.90;;;20.16;79.51
63883;BME280;50047;50.596;30.466;2023-07-31T01:49:32;98638.80;;;20.00;79.40
63883;BME280;50047;50.596;30.466;2023-07-31T01:52:00;98638.56;;;19.83;79.75
63883;BME280;50047;50.596;30.466;2023-07-31T01:54:27;98640.11;;;19.66;80.22
63883;BME280;50047;50.596;30.466;2023-07-31T01:56:54;98640.99;;;19.76;82.18
63883;BME280;50047;50.596;30.466;2023-07-31T01:59:21;98641.37;;;20.02;82.12
63883;BME280;50047;50.596;30.466;2023-07-31T02:01:48;98636.85;;;20.13;81.00
63883;BME280;50047;50.596;30.466;2023-07-31T02:04:15;98634.77;;;20.04;80.44
63883;BME280;50047;50.596;30.466;2023-07-31T02:06:43;98633.84;;;19.87;80.13
63883;BME280;50047;50.596;30.466;2023-07-31T02:09:10;98636.95;;;19.72;80.26
63883;BME280;50047;50.596;30.466;2023-07-31T02:11:37;98637.70;;;19.56;80.98
63883;BME280;50047;50.596;30.466;2023-07-31T02:14:04;98641.84;;;19.67;83.19
63883;BME280;50047;50.596;30.466;2023-07-31T02:16:31;98643.56;;;19.97;82.99
63883;BME280;50047;50.596;30.466;2023-07-31T02:19:00;98636.19;;;20.09;81.75
63883;BME280;50047;50.596;30.466;2023-07-31T02:21:27;98635.71;;;20.07;80.72
63883;BME280;50047;50.596;30.466;2023-07-31T02:23:54;98637.52;;;19.94;80.22
63883;BME280;50047;50.596;30.466;2023-07-31T02:26:21;98637.96;;;19.77;80.21
63883;BME280;50047;50.596;30.466;2023-07-31T02:28:47;98636.24;;;19.62;80.83
63883;BME280;50047;50.596;30.466;2023-07-31T02:31:14;98638.13;;;19.74;83.36
63883;BME280;50047;50.596;30.466;2023-07-31T02:33:41;98638.80;;;20.06;83.26
63883;BME280;50047;50.596;30.466;2023-07-31T02:36:09;98638.91;;;20.20;82.04
63883;BME280;50047;50.596;30.466;2023-07-31T02:38:37;98645.00;;;20.18;81.06
63883;BME280;50047;50.596;30.466;2023-07-31T02:41:06;98644.75;;;20.07;80.39
63883;BME280;50047;50.596;30.466;2023-07-31T02:43:33;98644.59;;;19.93;80.74
63883;BME280;50047;50.596;30.466;2023-07-31T02:46:00;98645.10;;;20.00;82.54
63883;BME280;50047;50.596;30.466;2023-07-31T02:48:28;98643.08;;;20.25;82.35
63883;BME280;50047;50.596;30.466;2023-07-31T02:50:55;98645.84;;;20.37;81.12
63883;BME280;50047;50.596;30.466;2023-07-31T02:53:21;98641.89;;;20.34;80.14
63883;BME280;50047;50.596;30.466;2023-07-31T02:55:49;98644.42;;;20.21;79.63
63883;BME280;50047;50.596;30.466;2023-07-31T02:58:16;98644.94;;;20.06;79.84
63883;BME280;50047;50.596;30.466;2023-07-31T03:00:43;98648.67;;;20.10;81.89
63883;BME280;50047;50.596;30.466;2023-07-31T03:03:10;98648.67;;;20.31;82.17
63883;BME280;50047;50.596;30.466;2023-07-31T03:05:38;98657.83;;;20.43;80.74
63883;BME280;50047;50.596;30.466;2023-07-31T03:08:05;98658.82;;;20.39;79.94
63883;BME280;50047;50.596;30.466;2023-07-31T03:10:32;98662.05;;;20.23;79.83
63883;BME280;50047;50.596;30.466;2023-07-31T03:12:59;98660.96;;;20.05;80.42
63883;BME280;50047;50.596;30.466;2023-07-31T03:15:26;98665.73;;;20.11;82.17
63883;BME280;50047;50.596;30.466;2023-07-31T03:17:52;98669.09;;;20.34;82.06
63883;BME280;50047;50.596;30.466;2023-07-31T03:20:19;98667.29;;;20.47;80.96
63883;BME280;50047;50.596;30.466;2023-07-31T03:22:46;98670.45;;;20.50;79.88
63883;BME280;50047;50.596;30.466;2023-07-31T03:25:14;98668.34;;;20.46;78.90
63883;BME280;50047;50.596;30.466;2023-07-31T03:27:41;98662.69;;;20.37;78.65
63883;BME280;50047;50.596;30.466;2023-07-31T03:30:07;98667.46;;;20.27;78.94
63883;BME280;50047;50.596;30.466;2023-07-31T03:32:35;98669.85;;;20.43;80.82
63883;BME280;50047;50.596;30.466;2023-07-31T03:35:02;98669.92;;;20.76;80.63
63883;BME280;50047;50.596;30.466;2023-07-31T03:37:29;98669.09;;;20.94;79.20
63883;BME280;50047;50.596;30.466;2023-07-31T03:39:56;98671.73;;;20.97;78.10
63883;BME280;50047;50.596;30.466;2023-07-31T03:42:23;98671.22;;;20.88;77.62
63883;BME280;50047;50.596;30.466;2023-07-31T03:44:50;98671.24;;;20.75;77.13
63883;BME280;50047;50.596;30.466;2023-07-31T03:47:17;98672.50;;;20.65;77.48
63883;BME280;50047;50.596;30.466;2023-07-31T03:49:44;98676.14;;;20.77;79.46
63883;BME280;50047;50.596;30.466;2023-07-31T03:52:12;98683.64;;;21.07;79.30
63883;BME280;50047;50.596;30.466;2023-07-31T03:54:39;98682.70;;;21.18;78.27
63883;BME280;50047;50.596;30.466;2023-07-31T03:57:06;98689.09;;;21.20;77.28
63883;BME280;50047;50.596;30.466;2023-07-31T03:59:32;98688.91;;;21.08;76.88
63883;BME280;50047;50.596;30.466;2023-07-31T04:02:00;98690.53;;;20.91;76.95
63883;BME280;50047;50.596;30.466;2023-07-31T04:04:26;98688.33;;;20.75;77.06
63883;BME280;50047;50.596;30.466;2023-07-31T04:06:53;98684.61;;;20.81;79.03
63883;BME280;50047;50.596;30.466;2023-07-31T04:09:20;98687.16;;;21.09;78.81
63883;BME280;50047;50.596;30.466;2023-07-31T04:11:47;98687.95;;;21.18;77.62
63883;BME280;50047;50.596;30.466;2023-07-31T04:14:14;98690.63;;;21.14;76.61
63883;BME280;50047;50.596;30.466;2023-07-31T04:16:41;98693.95;;;21.02;76.16
63883;BME280;50047;50.596;30.466;2023-07-31T04:19:09;98698.25;;;20.90;75.99
63883;BME280;50047;50.596;30.466;2023-07-31T04:21:37;98699.00;;;20.80;76.22
63883;BME280;50047;50.596;30.466;2023-07-31T04:24:04;98694.34;;;20.99;77.42
63883;BME280;50047;50.596;30.466;2023-07-31T04:26:31;98696.64;;;21.38;76.69
63883;BME280;50047;50.596;30.466;2023-07-31T04:28:58;98692.77;;;21.59;75.25
63883;BME280;50047;50.596;30.466;2023-07-31T04:31:25;98694.61;;;21.63;74.24
63883;BME280;50047;50.596;30.466;2023-07-31T04:33:52;98701.77;;;21.56;73.79
63883;BME280;50047;50.596;30.466;2023-07-31T04:36:19;98709.08;;;21.40;73.60
63883;BME280;50047;50.596;30.466;2023-07-31T04:38:45;98708.45;;;21.20;73.70
63883;BME280;50047;50.596;30.466;2023-07-31T04:41:12;98709.94;;;21.05;73.99
63883;BME280;50047;50.596;30.466;2023-07-31T04:43:39;98705.16;;;21.18;75.36
63883;BME280;50047;50.596;30.466;2023-07-31T04:46:06;98705.98;;;21.52;75.15
63883;BME280;50047;50.596;30.466;2023-07-31T04:48:33;98705.95;;;21.64;74.11
63883;BME280;50047;50.596;30.466;2023-07-31T04:51:00;98705.90;;;21.56;73.70
63883;BME280;50047;50.596;30.466;2023-07-31T04:53:27;98711.66;;;21.42;73.54
63883;BME280;50047;50.596;30.466;2023-07-31T04:55:54;98710.92;;;21.26;73.64
63883;BME280;50047;50.596;30.466;2023-07-31T04:58:21;98712.20;;;21.09;73.67
63883;BME280;50047;50.596;30.466;2023-07-31T05:00:48;98714.86;;;20.97;74.28
63883;BME280;50047;50.596;30.466;2023-07-31T05:03:14;98722.82;;;21.09;75.88
63883;BME280;50047;50.596;30.466;2023-07-31T05:05:41;98725.21;;;21.39;75.90
63883;BME280;50047;50.596;30.466;2023-07-31T05:08:08;98726.98;;;21.61;74.76
63883;BME280;50047;50.596;30.466;2023-07-31T05:10:37;98726.55;;;21.62;74.07
63883;BME280;50047;50.596;30.466;2023-07-31T05:13:04;98725.95;;;21.55;73.53
63883;BME280;50047;50.596;30.466;2023-07-31T05:15:31;98724.65;;;21.44;73.31
63883;BME280;50047;50.596;30.466;2023-07-31T05:17:58;98727.27;;;21.30;73.31
63883;BME280;50047;50.596;30.466;2023-07-31T05:20:25;98723.52;;;21.19;73.81
63883;BME280;50047;50.596;30.466;2023-07-31T05:22:53;98728.48;;;21.39;75.34
63883;BME280;50047;50.596;30.466;2023-07-31T05:25:19;98733.27;;;21.91;74.39
63883;BME280;50047;50.596;30.466;2023-07-31T05:27:46;98734.45;;;22.02;73.26
63883;BME280;50047;50.596;30.466;2023-07-31T05:30:13;98732.26;;;22.05;72.55
63883;BME280;50047;50.596;30.466;2023-07-31T05:32:40;98730.99;;;22.07;71.48
63883;BME280;50047;50.596;30.466;2023-07-31T05:35:07;98731.58;;;21.90;71.49
63883;BME280;50047;50.596;30.466;2023-07-31T05:37:36;98728.77;;;21.75;71.74
63883;BME280;50047;50.596;30.466;2023-07-31T05:40:02;98731.59;;;21.64;72.55
63883;BME280;50047;50.596;30.466;2023-07-31T05:42:31;98736.74;;;21.82;73.85
63883;BME280;50047;50.596;30.466;2023-07-31T05:44:58;98734.66;;;22.18;73.27
63883;BME280;50047;50.596;30.466;2023-07-31T05:47:25;98731.36;;;22.50;71.76
63883;BME280;50047;50.596;30.466;2023-07-31T05:49:52;98736.36;;;22.52;71.05
63883;BME280;50047;50.596;30.466;2023-07-31T05:52:19;98739.27;;;22.39;71.00
63883;BME280;50047;50.596;30.466;2023-07-31T05:54:47;98741.16;;;22.23;71.31
63883;BME280;50047;50.596;30.466;2023-07-31T05:57:14;98745.63;;;22.09;71.26
63883;BME280;50047;50.596;30.466;2023-07-31T05:59:41;98746.23;;;21.88;72.15
63883;BME280;50047;50.596;30.466;2023-07-31T06:02:08;98749.23;;;22.00;73.63
63883;BME280;50047;50.596;30.466;2023-07-31T06:04:35;98751.02;;;22.38;72.93
63883;BME280;50047;50.596;30.466;2023-07-31T06:07:02;98747.50;;;22.50;72.08
63883;BME280;50047;50.596;30.466;2023-07-31T06:09:30;98750.31;;;22.57;71.43
63883;BME280;50047;50.596;30.466;2023-07-31T06:11:56;98752.77;;;22.52;70.82
63883;BME280;50047;50.596;30.466;2023-07-31T06:14:24;98751.40;;;22.42;70.48
63883;BME280;50047;50.596;30.466;2023-07-31T06:16:50;98754.27;;;22.24;71.08
63883;BME280;50047;50.596;30.466;2023-07-31T06:19:17;98756.39;;;22.12;71.39
63883;BME280;50047;50.596;30.466;2023-07-31T06:21:44;98759.45;;;22.35;72.61
63883;BME280;50047;50.596;30.466;2023-07-31T06:24:11;98764.92;;;22.74;71.59
63883;BME280;50047;50.596;30.466;2023-07-31T06:26:38;98764.94;;;22.90;70.93
63883;BME280;50047;50.596;30.466;2023-07-31T06:29:06;98760.95;;;23.03;70.18
63883;BME280;50047;50.596;30.466;2023-07-31T06:31:33;98762.67;;;23.08;69.67
63883;BME280;50047;50.596;30.466;2023-07-31T06:34:00;98767.22;;;23.06;69.13
63883;BME280;50047;50.596;30.466;2023-07-31T06:36:27;98771.89;;;22.97;69.13
63883;BME280;50047;50.596;30.466;2023-07-31T06:38:54;98776.54;;;22.88;69.29
63883;BME280;50047;50.596;30.466;2023-07-31T06:41:21;98776.10;;;22.80;69.80
63883;BME280;50047;50.596;30.466;2023-07-31T06:43:48;98778.36;;;23.02;70.80
63883;BME280;50047;50.596;30.466;2023-07-31T06:46:15;98771.13;;;23.48;70.20
63883;BME280;50047;50.596;30.466;2023-07-31T06:48:42;98770.94;;;23.86;68.99
63883;BME280;50047;50.596;30.466;2023-07-31T06:51:11;98772.31;;;24.02;67.80
63883;BME280;50047;50.596;30.466;2023-07-31T06:53:38;98772.64;;;24.07;67.13
63883;BME280;50047;50.596;30.466;2023-07-31T06:56:05;98774.75;;;24.00;67.05
63883;BME280;50047;50.596;30.466;2023-07-31T06:58:32;98772.73;;;23.91;66.95
63883;BME280;50047;50.596;30.466;2023-07-31T07:00:59;98774.46;;;23.79;66.84
63883;BME280;50047;50.596;30.466;2023-07-31T07:03:27;98774.05;;;23.61;67.24
63883;BME280;50047;50.596;30.466;2023-07-31T07:05:54;98778.36;;;23.48;67.89
63883;BME280;50047;50.596;30.466;2023-07-31T07:08:21;98783.02;;;23.71;68.91
63883;BME280;50047;50.596;30.466;2023-07-31T07:10:48;98781.29;;;24.12;68.11
63883;BME280;50047;50.596;30.466;2023-07-31T07:13:15;98780.84;;;24.32;67.12
63883;BME280;50047;50.596;30.466;2023-07-31T07:15:41;98775.77;;;24.31;66.56
63883;BME280;50047;50.596;30.466;2023-07-31T07:18:08;98771.83;;;24.33;66.43
63883;BME280;50047;50.596;30.466;2023-07-31T07:20:37;98774.65;;;24.31;65.73
63883;BME280;50047;50.596;30.466;2023-07-31T07:23:06;98771.17;;;24.32;65.36
63883;BME280;50047;50.596;30.466;2023-07-31T07:25:37;98770.67;;;24.31;65.27
63883;BME280;50047;50.596;30.466;2023-07-31T07:28:04;98774.45;;;24.29;65.30
63883;BME280;50047;50.596;30.466;2023-07-31T07:30:32;98775.83;;;24.31;65.40
63883;BME280;50047;50.596;30.466;2023-07-31T07:32:59;98773.58;;;24.37;65.24
63883;BME280;50047;50.596;30.466;2023-07-31T07:35:26;98772.34;;;24.75;65.99
63883;BME280;50047;50.596;30.466;2023-07-31T07:37:53;98772.97;;;25.40;64.84
63883;BME280;50047;50.596;30.466;2023-07-31T07:40:20;98770.15;;;25.83;63.73
63883;BME280;50047;50.596;30.466;2023-07-31T07:42:47;98769.83;;;26.02;62.30
63883;BME280;50047;50.596;30.466;2023-07-31T07:45:14;98774.55;;;25.96;61.65
63883;BME280;50047;50.596;30.466;2023-07-31T07:47:41;98773.10;;;25.91;61.34
63883;BME280;50047;50.596;30.466;2023-07-31T07:50:09;98776.05;;;25.83;61.33
63883;BME280;50047;50.596;30.466;2023-07-31T07:52:36;98778.08;;;25.86;61.21
63883;BME280;50047;50.596;30.466;2023-07-31T07:55:03;98776.20;;;25.90;61.01
63883;BME280;50047;50.596;30.466;2023-07-31T07:57:31;98771.59;;;25.87;60.98
63883;BME280;50047;50.596;30.466;2023-07-31T07:59:58;98774.27;;;25.84;61.13
63883;BME280;50047;50.596;30.466;2023-07-31T08:02:25;98778.21;;;25.75;61.22
63883;BME280;50047;50.596;30.466;2023-07-31T08:04:52;98777.69;;;25.57;61.52
63883;BME280;50047;50.596;30.466;2023-07-31T08:07:22;98777.20;;;25.37;61.98
63883;BME280;50047;50.596;30.466;2023-07-31T08:09:49;98775.57;;;25.26;62.12
63883;BME280;50047;50.596;30.466;2023-07-31T08:12:16;98770.06;;;25.25;62.00
63883;BME280;50047;50.596;30.466;2023-07-31T08:14:43;98764.36;;;25.25;62.16
63883;BME280;50047;50.596;30.466;2023-07-31T08:17:10;98765.22;;;25.13;62.43
63883;BME280;50047;50.596;30.466;2023-07-31T08:19:37;98759.26;;;24.94;62.93
63883;BME280;50047;50.596;30.466;2023-07-31T08:22:04;98765.19;;;24.79;63.18
63883;BME280;50047;50.596;30.466;2023-07-31T08:24:31;98766.93;;;24.64;63.49
63883;BME280;50047;50.596;30.466;2023-07-31T08:26:58;98769.56;;;24.58;63.98
63883;BME280;50047;50.596;30.466;2023-07-31T08:29:25;98769.50;;;24.85;64.44
63883;BME280;50047;50.596;30.466;2023-07-31T08:31:52;98769.48;;;25.24;63.78
63883;BME280;50047;50.596;30.466;2023-07-31T08:34:19;98773.23;;;25.27;63.33
63883;BME280;50047;50.596;30.466;2023-07-31T08:36:46;98775.42;;;25.23;63.04
63883;BME280;50047;50.596;30.466;2023-07-31T08:39:12;98776.88;;;25.19;62.91
63883;BME280;50047;50.596;30.466;2023-07-31T08:41:39;98780.65;;;25.08;62.74
63883;BME280;50047;50.596;30.466;2023-07-31T08:44:07;98784.05;;;24.95;62.74
63883;BME280;50047;50.596;30.466;2023-07-31T08:46:35;98781.48;;;24.80;63.08
63883;BME280;50047;50.596;30.466;2023-07-31T08:49:04;98781.52;;;24.65;63.57
63883;BME280;50047;50.596;30.466;2023-07-31T08:51:36;98782.00;;;24.55;63.71
63883;BME280;50047;50.596;30.466;2023-07-31T08:54:03;98781.89;;;24.54;63.89
63883;BME280;50047;50.596;30.466;2023-07-31T08:56:32;98781.86;;;24.56;64.11
63883;BME280;50047;50.596;30.466;2023-07-31T08:59:02;98787.39;;;24.61;64.22
63883;BME280;50047;50.596;30.466;2023-07-31T09:01:30;98789.05;;;24.69;64.09
63883;BME280;50047;50.596;30.466;2023-07-31T09:03:59;98791.90;;;25.17;64.45
63883;BME280;50047;50.596;30.466;2023-07-31T09:06:29;98792.16;;;25.69;63.36
63883;BME280;50047;50.596;30.466;2023-07-31T09:08:57;98791.88;;;25.91;62.18
63883;BME280;50047;50.596;30.466;2023-07-31T09:11:24;98787.58;;;25.91;61.48
63883;BME280;50047;50.596;30.466;2023-07-31T09:13:52;98784.38;;;25.84;61.43
63883;BME280;50047;50.596;30.466;2023-07-31T09:16:27;98788.16;;;25.73;61.51
63883;BME280;50047;50.596;30.466;2023-07-31T09:18:57;98789.49;;;25.63;61.84
63883;BME280;50047;50.596;30.466;2023-07-31T09:21:25;98788.05;;;25.55;61.95
63883;BME280;50047;50.596;30.466;2023-07-31T09:23:54;98792.83;;;25.52;61.78
63883;BME280;50047;50.596;30.466;2023-07-31T09:26:34;98789.96;;;25.49;62.28
63883;BME280;50047;50.596;30.466;2023-07-31T09:29:05;98789.88;;;25.53;61.80
63883;BME280;50047;50.596;30.466;2023-07-31T09:31:40;98790.02;;;25.59;61.59
63883;BME280;50047;50.596;30.466;2023-07-31T09:34:11;98786.20;;;25.69;61.58
63883;BME280;50047;50.596;30.466;2023-07-31T09:36:42;98788.18;;;25.80;61.44
63883;BME280;50047;50.596;30.466;2023-07-31T09:39:10;98779.83;;;25.87;61.58
63883;BME280;50047;50.596;30.466;2023-07-31T09:41:42;98784.54;;;26.02;61.31
63883;BME280;50047;50.596;30.466;2023-07-31T09:44:10;98784.02;;;26.13;60.80
63883;BME280;50047;50.596;30.466;2023-07-31T09:46:38;98781.48;;;26.40;60.21
63883;BME280;50047;50.596;30.466;2023-07-31T09:49:10;98783.41;;;26.58;60.28
63883;BME280;50047;50.596;30.466;2023-07-31T09:51:39;98786.34;;;26.67;59.67
63883;BME280;50047;50.596;30.466;2023-07-31T09:54:16;98782.80;;;26.74;59.24
63883;BME280;50047;50.596;30.466;2023-07-31T09:56:48;98784.75;;;26.93;58.21
63883;BME280;50047;50.596;30.466;2023-07-31T09:59:19;98781.27;;;27.17;57.44
63883;BME280;50047;50.596;30.466;2023-07-31T10:01:50;98783.88;;;27.40;57.01
63883;BME280;50047;50.596;30.466;2023-07-31T10:04:20;98780.07;;;27.46;56.56
63883;BME280;50047;50.596;30.466;2023-07-31T10:06:53;98781.68;;;27.41;56.31
63883;BME280;50047;50.596;30.466;2023-07-31T10:09:23;98788.87;;;27.42;56.30
63883;BME280;50047;50.596;30.466;2023-07-31T10:11:56;98785.83;;;27.40;56.83
63883;BME280;50047;50.596;30.466;2023-07-31T10:14:26;98782.01;;;27.37;57.24
63883;BME280;50047;50.596;30.466;2023-07-31T10:16:56;98778.53;;;27.40;57.43
63883;BME280;50047;50.596;30.466;2023-07-31T10:19:23;98776.09;;;27.39;57.38
63883;BME280;50047;50.596;30.466;2023-07-31T10:21:51;98771.41;;;27.41;57.34
63883;BME280;50047;50.596;30.466;2023-07-31T10:24:18;98769.02;;;27.34;57.48
63883;BME280;50047;50.596;30.466;2023-07-31T10:26:46;98770.95;;;27.23;57.91
63883;BME280;50047;50.596;30.466;2023-07-31T10:29:15;98768.59;;;27.32;57.44
63883;BME280;50047;50.596;30.466;2023-07-31T10:31:45;98764.54;;;27.24;57.68
63883;BME280;50047;50.596;30.466;2023-07-31T10:34:13;98763.60;;;27.25;57.38
63883;BME280;50047;50.596;30.466;2023-07-31T10:36:40;98767.67;;;26.97;57.48
63883;BME280;50047;50.596;30.466;2023-07-31T10:39:37;98767.02;;;26.77;58.52
63883;BME280;50047;50.596;30.466;2023-07-31T10:42:10;98768.40;;;26.75;58.58
63883;BME280;50047;50.596;30.466;2023-07-31T10:44:38;98771.01;;;26.79;58.17
63883;BME280;50047;50.596;30.466;2023-07-31T10:47:06;98769.46;;;26.81;58.30
63883;BME280;50047;50.596;30.466;2023-07-31T10:49:33;98773.42;;;26.95;58.05
63883;BME280;50047;50.596;30.466;2023-07-31T10:52:03;98778.71;;;27.05;57.81
63883;BME280;50047;50.596;30.466;2023-07-31T10:54:33;98780.02;;;27.08;57.62
63883;BME280;50047;50.596;30.466;2023-07-31T10:57:00;98779.89;;;27.14;57.50
63883;BME280;50047;50.596;30.466;2023-07-31T10:59:27;98781.37;;;27.27;57.54
63883;BME280;50047;50.596;30.466;2023-07-31T11:01:56;98783.11;;;27.37;57.00
63883;BME280;50047;50.596;30.466;2023-07-31T11:04:30;98783.76;;;27.33;57.06
63883;BME280;50047;50.596;30.466;2023-07-31T11:07:00;98781.20;;;27.22;57.28
63883;BME280;50047;50.596;30.466;2023-07-31T11:09:29;98777.66;;;27.08;57.45
63883;BME280;50047;50.596;30.466;2023-07-31T11:11:56;98767.13;;;26.74;57.80
63883;BME280;50047;50.596;30.466;2023-07-31T11:14:24;98763.03;;;26.49;58.32
63883;BME280;50047;50.596;30.466;2023-07-31T11:16:51;98766.64;;;26.46;58.34
63883;BME280;50047;50.596;30.466;2023-07-31T11:19:25;98771.45;;;26.59;58.13
63883;BME280;50047;50.596;30.466;2023-07-31T11:21:52;98774.22;;;26.75;57.80
63883;BME280;50047;50.596;30.466;2023-07-31T11:24:20;98774.29;;;26.91;57.39
63883;BME280;50047;50.596;30.466;2023-07-31T11:26:53;98772.27;;;27.01;57.12
63883;BME280;50047;50.596;30.466;2023-07-31T11:29:20;98771.18;;;27.01;57.13
63883;BME280;50047;50.596;30.466;2023-07-31T11:31:53;98769.13;;;26.91;56.87
63883;BME280;50047;50.596;30.466;2023-07-31T11:34:20;98763.65;;;26.64;57.56
63883;BME280;50047;50.596;30.466;2023-07-31T11:36:54;98765.63;;;26.46;57.73
63883;BME280;50047;50.596;30.466;2023-07-31T11:39:22;98760.85;;;26.27;58.01
63883;BME280;50047;50.596;30.466;2023-07-31T11:41:49;98760.02;;;26.18;58.35
63883;BME280;50047;50.596;30.466;2023-07-31T11:44:16;98759.70;;;26.29;57.79
63883;BME280;50047;50.596;30.466;2023-07-31T11:46:58;98759.45;;;26.40;57.57
63883;BME280;50047;50.596;30.466;2023-07-31T11:49:29;98753.50;;;26.55;57.47
63883;BME280;50047;50.596;30.466;2023-07-31T11:51:56;98751.98;;;26.73;57.00
63883;BME280;50047;50.596;30.466;2023-07-31T11:54:23;98749.36;;;26.83;55.93
63883;BME280;50047;50.596;30.466;2023-07-31T11:56:50;98745.27;;;26.86;55.71
63883;BME280;50047;50.596;30.466;2023-07-31T11:59:17;98744.59;;;26.88;55.18
63883;BME280;50047;50.596;30.466;2023-07-31T12:01:44;98736.98;;;26.83;55.01
63883;BME280;50047;50.596;30.466;2023-07-31T12:04:11;98734.55;;;26.79;55.38
63883;BME280;50047;50.596;30.466;2023-07-31T12:06:39;98730.20;;;26.85;54.96
63883;BME280;50047;50.596;30.466;2023-07-31T12:09:06;98737.90;;;27.00;54.50
63883;BME280;50047;50.596;30.466;2023-07-31T12:11:47;98738.62;;;27.09;52.87
63883;BME280;50047;50.596;30.466;2023-07-31T12:14:24;98739.14;;;27.17;52.49
63883;BME280;50047;50.596;30.466;2023-07-31T12:16:59;98736.11;;;27.18;52.90
63883;BME280;50047;50.596;30.466;2023-07-31T12:19:27;98739.31;;;27.18;52.88
63883;BME280;50047;50.596;30.466;2023-07-31T12:22:01;98739.00;;;27.21;52.42
63883;BME280;50047;50.596;30.466;2023-07-31T12:24:28;98743.81;;;27.28;51.25
63883;BME280;50047;50.596;30.466;2023-07-31T12:26:55;98744.07;;;27.34;52.22
63883;BME280;50047;50.596;30.466;2023-07-31T12:29:22;98742.04;;;27.30;51.71
63883;BME280;50047;50.596;30.466;2023-07-31T12:31:49;98743.55;;;27.26;52.08
63883;BME280;50047;50.596;30.466;2023-07-31T12:34:17;98742.71;;;27.23;51.62
63883;BME280;50047;50.596;30.466;2023-07-31T12:36:45;98739.79;;;27.27;51.15
63883;BME280;50047;50.596;30.466;2023-07-31T12:39:12;98732.19;;;27.27;50.00
63883;BME280;50047;50.596;30.466;2023-07-31T12:41:39;98731.70;;;27.08;50.35
63883;BME280;50047;50.596;30.466;2023-07-31T12:44:06;98729.05;;;27.18;51.35
63883;BME280;50047;50.596;30.466;2023-07-31T12:46:33;98729.47;;;27.28;51.12
63883;BME280;50047;50.596;30.466;2023-07-31T12:49:00;98730.95;;;27.33;50.86
63883;BME280;50047;50.596;30.466;2023-07-31T12:51:28;98735.27;;;27.23;51.15
63883;BME280;50047;50.596;30.466;2023-07-31T12:53:54;98737.88;;;27.20;51.28
63883;BME280;50047;50.596;30.466;2023-07-31T12:56:21;98739.38;;;27.17;51.46
63883;BME280;50047;50.596;30.466;2023-07-31T12:58:48;98739.98;;;27.10;51.10
63883;BME280;50047;50.596;30.466;2023-07-31T13:01:15;98735.80;;;27.05;51.13